Tijuana, Mexico

2:44 PM PST on December 17, 2014 (GMT -0800)
Proteccion Civil Tijuana | Change Station
CLOSE
Current Station
Personal Weather Station
Location: TIJUANA, BAJA CALIFORNIA
Elevation: 396 ft
Nearby Weather Stations

Elev 396 ft 32.53 °N, 116.99 °W | Updated 9 minutes ago

Mostly Cloudy
Mostly Cloudy
61.3 °F
Feels Like 61.3 °F
N
14.0
Wind Variable Wind from SW

Today
High -- | Low -- °F
--% Chance of Precip.
Yesterday
High -- | Low -- °F
Precip. -- in
6:43 AM 4:44 PM
Waning Crescent, 19% visible
Pressure 30.07 in
Visibility 10.0 miles
Clouds Few 3300 ft
Scattered Clouds 4100 ft
Mostly Cloudy 6000 ft
Dew Point 51 °F
Humidity 69%
Rainfall 0.30 in
Snow Depth Not available.
UV 1 out of 12
Pollen Not available.
Air Quality Not available.
Flu Activity Not available.
METAR KSDM 172153Z 26010KT 10SM FEW033 SCT041 BKN060 17/09 A3007 RMK AO2 SLP182 T01670089

More Conditions Fewer Conditions

Pressure 30.07 in
Visibility 10.0 miles
Clouds Few 3300 ft
Scattered Clouds 4100 ft
Mostly Cloudy 6000 ft
Dew Point 51 °F
Humidity 69%
Rainfall 0.30 in
Snow Depth Not available.
UV 1 out of 12
Pollen Not available.
Air Quality Not available.
Flu Activity Not available.
METAR KSDM 172153Z 26010KT 10SM FEW033 SCT041 BKN060 17/09 A3007 RMK AO2 SLP182 T01670089

More Conditions Fewer Conditions

10-Day Weather Forecast

Almanac

Astronomy

Dec. 17, 2014 Rise Set
Actual Time
Civil Twilight
Nautical Twilight
Astronomical Twilight
Moon
Length of Visible Light
Length of Day
Tomorrow will be .
, % of the Moon is Illuminated

Today's Extremes

Country Highs Country Lows

Community

WunderPhotos

Upload Photos

1,778,813 photos uploaded!

WunderBlogs® & News

Nearby

Air Quality

  Air Quality AQ Index Pollutant
Not available.

Snow Depth

Station Depth Elevation

Earthquake Activity

City Distance Mag. Time & Date
Minimum magnitude displayed is 2.5.

Coastal Water Temperatures

Place Temperature

Nearby Weather Stations